createdAt,value
2018-06-16T00:00:05.597Z,12.97
2018-06-16T00:02:33.877Z,12.13
2018-06-16T00:05:02.808Z,13.67
2018-06-16T00:07:31.074Z,15.30
2018-06-16T00:09:59.368Z,10.90
2018-06-16T00:12:27.637Z,12.67
2018-06-16T00:14:55.967Z,11.97
2018-06-16T00:17:24.291Z,12.53
2018-06-16T00:19:52.575Z,11.13
2018-06-16T00:22:20.597Z,10.77
2018-06-16T00:24:48.895Z,12.03
2018-06-16T00:27:17.162Z,12.00
2018-06-16T00:29:45.450Z,11.53
2018-06-16T00:32:13.706Z,11.00
2018-06-16T00:34:42.802Z,11.00
2018-06-16T00:37:11.190Z,14.10
2018-06-16T00:39:40.409Z,14.90
2018-06-16T00:42:08.980Z,12.30
2018-06-16T00:44:37.682Z,14.17
2018-06-16T00:47:06.230Z,12.23
2018-06-16T00:49:35.538Z,12.50
2018-06-16T00:52:04.438Z,13.63
2018-06-16T00:54:32.938Z,14.20
2018-06-16T00:58:04.518Z,12.37
2018-06-16T01:00:33.674Z,13.63
2018-06-16T01:03:03.252Z,12.90
2018-06-16T01:05:31.597Z,13.43
2018-06-16T01:08:00.274Z,11.60
2018-06-16T01:10:28.590Z,12.20
2018-06-16T01:12:56.967Z,12.67
2018-06-16T01:15:26.229Z,11.47
2018-06-16T01:17:54.559Z,15.60
2018-06-16T01:20:23.549Z,10.33
2018-06-16T01:22:51.918Z,12.20
2018-06-16T01:25:20.314Z,11.93
2018-06-16T01:27:48.792Z,11.23
2018-06-16T01:30:17.425Z,12.10
2018-06-16T01:32:45.685Z,13.50
2018-06-16T01:35:14.042Z,13.60
2018-06-16T01:37:42.325Z,12.27
2018-06-16T01:40:10.646Z,12.47
2018-06-16T01:42:39.583Z,13.03
2018-06-16T01:45:07.889Z,13.37
2018-06-16T01:47:36.219Z,13.20
2018-06-16T01:50:04.518Z,12.53
2018-06-16T01:52:33.258Z,13.90
2018-06-16T01:55:01.567Z,13.20
2018-06-16T01:57:29.859Z,13.10
2018-06-16T01:59:58.234Z,13.33
2018-06-16T02:02:26.519Z,12.40
2018-06-16T02:04:54.793Z,13.90
2018-06-16T02:07:23.383Z,15.87
2018-06-16T02:09:52.398Z,12.70
2018-06-16T02:12:21.243Z,13.93
2018-06-16T02:14:50.005Z,15.80
2018-06-16T02:17:18.278Z,14.03
2018-06-16T02:19:46.798Z,15.37
2018-06-16T02:22:15.087Z,15.33
2018-06-16T02:24:43.905Z,15.30
2018-06-16T02:27:12.548Z,14.03
2018-06-16T02:29:41.432Z,14.23
2018-06-16T02:32:09.842Z,17.50
2018-06-16T02:34:39.117Z,14.47
2018-06-16T02:37:07.408Z,12.83
2018-06-16T02:39:35.707Z,13.40
2018-06-16T02:42:04.289Z,17.17
2018-06-16T02:44:32.923Z,14.03
2018-06-16T02:47:01.190Z,14.87
2018-06-16T02:49:29.493Z,16.30
2018-06-16T02:51:57.741Z,17.00
2018-06-16T02:54:26.147Z,16.37
2018-06-16T02:56:54.395Z,15.13
2018-06-16T02:59:22.718Z,16.63
2018-06-16T03:01:51.158Z,16.20
2018-06-16T03:04:19.472Z,19.27
2018-06-16T03:06:47.522Z,17.47
2018-06-16T03:09:15.814Z,16.63
2018-06-16T03:11:44.134Z,15.77
2018-06-16T03:14:12.407Z,17.00
2018-06-16T03:16:40.672Z,17.63
2018-06-16T03:19:08.963Z,22.30
2018-06-16T03:21:37.582Z,18.40
2018-06-16T03:24:05.905Z,19.00
2018-06-16T03:26:34.307Z,18.10
2018-06-16T03:29:02.730Z,16.53
2018-06-16T03:31:31.060Z,18.00
2018-06-16T03:33:59.362Z,18.10
2018-06-16T03:36:27.901Z,17.80
2018-06-16T03:38:56.150Z,15.13
2018-06-16T03:41:24.438Z,15.87
2018-06-16T03:43:52.445Z,15.87
2018-06-16T03:46:20.706Z,17.40
2018-06-16T03:48:48.718Z,14.67
2018-06-16T03:51:16.990Z,17.90
2018-06-16T03:53:45.247Z,19.53
2018-06-16T03:56:14.610Z,17.17
2018-06-16T03:58:43.303Z,18.90
2018-06-16T04:01:11.719Z,16.37
2018-06-16T04:03:40.344Z,16.80
2018-06-16T04:06:09.903Z,17.23
2018-06-16T04:08:38.162Z,18.63
2018-06-16T04:11:06.494Z,13.97
2018-06-16T04:13:34.750Z,16.00
2018-06-16T04:16:03.263Z,14.43
2018-06-16T04:18:31.548Z,19.70
2018-06-16T04:20:59.850Z,16.23
2018-06-16T04:23:28.224Z,16.37
2018-06-16T04:25:56.558Z,15.37
2018-06-16T04:28:24.822Z,14.63
2018-06-16T04:30:53.101Z,16.13
2018-06-16T04:33:21.398Z,15.30
2018-06-16T04:35:49.695Z,19.07
2018-06-16T04:38:17.958Z,16.27
2018-06-16T04:40:46.235Z,19.67
2018-06-16T04:43:14.726Z,18.93
2018-06-16T04:45:43.045Z,16.97
2018-06-16T04:48:11.371Z,18.03
2018-06-16T04:50:39.684Z,19.27
2018-06-16T04:53:07.964Z,18.83
2018-06-16T04:55:36.262Z,14.97
2018-06-16T04:58:04.801Z,14.90
2018-06-16T05:00:33.071Z,14.40
2018-06-16T05:03:01.333Z,15.87
2018-06-16T05:05:29.614Z,16.87
2018-06-16T05:07:57.894Z,15.33
2018-06-16T05:10:26.178Z,14.80
2018-06-16T05:12:54.485Z,15.53
2018-06-16T05:15:22.791Z,16.77
2018-06-16T05:17:50.917Z,21.23
2018-06-16T05:20:19.327Z,14.80
2018-06-16T05:22:47.744Z,14.07
2018-06-16T05:25:16.398Z,14.83
2018-06-16T05:27:44.680Z,16.13
2018-06-16T05:30:13.347Z,16.77
2018-06-16T05:32:44.182Z,16.47
2018-06-16T05:35:12.550Z,17.73
2018-06-16T05:37:41.027Z,16.80
2018-06-16T05:40:09.679Z,13.13
2018-06-16T05:42:38.366Z,13.77
2018-06-16T05:45:06.645Z,15.23
2018-06-16T05:47:34.946Z,13.53
2018-06-16T05:50:03.213Z,13.50
2018-06-16T05:52:31.477Z,16.27
2018-06-16T05:54:59.744Z,15.97
2018-06-16T05:57:28.014Z,15.73
2018-06-16T05:59:56.290Z,14.00
2018-06-16T06:02:25.279Z,18.67
2018-06-16T06:04:53.655Z,14.10
2018-06-16T06:07:21.973Z,15.33
2018-06-16T06:09:50.310Z,16.27
2018-06-16T06:12:18.629Z,13.07
2018-06-16T06:14:46.905Z,14.37
2018-06-16T06:17:15.190Z,17.00
2018-06-16T06:19:43.476Z,15.03
2018-06-16T06:22:11.799Z,14.13
2018-06-16T06:24:40.083Z,13.57
2018-06-16T06:27:08.139Z,14.80
2018-06-16T06:29:36.406Z,13.50
2018-06-16T06:32:04.746Z,14.07
2018-06-16T06:34:32.772Z,13.90
2018-06-16T06:37:01.471Z,13.53
2018-06-16T06:39:29.778Z,14.30
2018-06-16T06:41:58.067Z,13.97
2018-06-16T06:44:26.337Z,15.47
2018-06-16T06:46:54.640Z,21.87
2018-06-16T06:49:22.965Z,16.27
2018-06-16T06:51:51.278Z,12.87
2018-06-16T06:54:19.546Z,12.63
2018-06-16T06:56:47.848Z,12.97
2018-06-16T06:59:16.203Z,14.83
2018-06-16T07:01:44.482Z,11.87
2018-06-16T07:04:12.750Z,13.87
2018-06-16T07:06:41.080Z,12.70
2018-06-16T07:09:10.751Z,12.33
2018-06-16T07:11:39.061Z,12.93
2018-06-16T07:14:07.537Z,12.90
2018-06-16T07:16:36.250Z,11.20
2018-06-16T07:19:04.538Z,11.20
2018-06-16T07:21:32.969Z,10.97
2018-06-16T07:24:01.538Z,11.00
2018-06-16T07:26:29.866Z,10.77
2018-06-16T07:28:58.126Z,11.60
2018-06-16T07:31:26.470Z,12.13
2018-06-16T07:33:54.746Z,9.33
2018-06-16T07:36:23.403Z,12.03
2018-06-16T07:38:52.264Z,10.30
2018-06-16T07:41:20.495Z,12.53
2018-06-16T07:43:48.765Z,10.73
2018-06-16T07:46:17.044Z,9.90
2018-06-16T07:48:45.340Z,10.47
2018-06-16T07:51:13.621Z,8.43
2018-06-16T07:53:42.096Z,8.83
2018-06-16T07:56:10.365Z,10.77
2018-06-16T07:58:38.658Z,8.03
2018-06-16T08:01:07.482Z,8.70
2018-06-16T08:03:35.859Z,12.83
2018-06-16T08:06:04.108Z,8.53
2018-06-16T08:08:32.683Z,13.07
2018-06-16T08:11:01.260Z,8.87
2018-06-16T08:13:29.593Z,11.27
2018-06-16T08:15:58.023Z,12.23
2018-06-16T08:18:27.058Z,10.00
2018-06-16T08:20:55.351Z,8.47
2018-06-16T08:23:23.663Z,8.30
2018-06-16T08:25:52.253Z,11.47
2018-06-16T08:28:20.532Z,9.37
2018-06-16T08:30:48.808Z,7.37
2018-06-16T08:33:17.081Z,7.73
2018-06-16T08:35:46.302Z,8.47
2018-06-16T08:38:14.628Z,9.83
2018-06-16T08:40:43.031Z,8.60
2018-06-16T08:43:11.390Z,8.30
2018-06-16T08:45:39.669Z,8.83
2018-06-16T08:48:07.938Z,7.10
2018-06-16T08:50:37.045Z,8.90
2018-06-16T08:53:05.129Z,12.18
2018-06-16T08:55:33.776Z,9.23
2018-06-16T08:58:01.986Z,9.50
2018-06-16T09:00:30.252Z,6.80
2018-06-16T09:02:58.521Z,6.37
2018-06-16T09:05:26.819Z,8.18
2018-06-16T09:07:55.198Z,9.60
2018-06-16T09:10:23.473Z,7.80
2018-06-16T09:12:52.159Z,7.28
2018-06-16T09:15:20.502Z,7.85
2018-06-16T09:17:49.591Z,6.35
2018-06-16T09:20:18.280Z,6.15
2018-06-16T09:22:46.755Z,6.30
2018-06-16T09:25:15.031Z,6.30
2018-06-16T09:27:43.389Z,5.65
2018-06-16T09:30:11.846Z,7.30
2018-06-16T09:32:40.431Z,6.37
2018-06-16T09:35:08.746Z,6.67
2018-06-16T09:37:37.035Z,8.03
2018-06-16T09:40:05.608Z,7.42
2018-06-16T09:42:34.044Z,7.67
2018-06-16T09:45:02.310Z,9.03
2018-06-16T09:47:30.653Z,6.53
2018-06-16T09:49:59.006Z,9.93
2018-06-16T09:52:27.605Z,7.03
2018-06-16T09:54:55.874Z,6.20
2018-06-16T09:57:24.271Z,8.78
2018-06-16T09:59:52.642Z,7.20
2018-06-16T10:02:20.917Z,7.83
2018-06-16T10:04:49.670Z,8.03
2018-06-16T10:07:17.928Z,7.30
2018-06-16T10:09:46.882Z,7.25
2018-06-16T10:12:15.788Z,6.58
2018-06-16T10:14:44.804Z,6.87
2018-06-16T10:17:13.066Z,7.17
2018-06-16T10:19:41.426Z,7.28
2018-06-16T10:22:09.688Z,7.12
2018-06-16T10:24:37.983Z,6.45
2018-06-16T10:27:06.341Z,5.90
2018-06-16T10:29:34.636Z,6.58
2018-06-16T10:32:03.052Z,7.47
2018-06-16T10:34:31.615Z,6.33
2018-06-16T10:36:59.934Z,5.50
2018-06-16T10:39:28.216Z,8.33
2018-06-16T10:41:56.479Z,9.58
2018-06-16T10:44:24.804Z,6.70
2018-06-16T10:46:53.166Z,8.03
2018-06-16T10:49:21.454Z,6.77
2018-06-16T10:51:49.750Z,6.20
2018-06-16T10:54:19.017Z,9.03
2018-06-16T10:56:47.299Z,8.10
2018-06-16T10:59:15.686Z,9.80
2018-06-16T11:01:43.937Z,9.47
2018-06-16T11:04:12.226Z,6.97
2018-06-16T11:06:40.518Z,9.70
2018-06-16T11:09:09.576Z,6.40
2018-06-16T11:11:38.038Z,6.87
2018-06-16T11:14:06.664Z,8.90
2018-06-16T11:16:35.086Z,6.00
2018-06-16T11:19:04.920Z,6.00
2018-06-16T11:21:33.166Z,6.80
2018-06-16T11:24:01.759Z,5.57
2018-06-16T11:26:30.395Z,8.07
2018-06-16T11:28:58.673Z,7.37
2018-06-16T11:31:26.965Z,7.03
2018-06-16T11:33:55.709Z,8.97
2018-06-16T11:36:24.098Z,6.80
2018-06-16T11:38:52.433Z,7.80
2018-06-16T11:41:20.814Z,7.30
2018-06-16T11:43:48.831Z,6.70
2018-06-16T11:46:17.123Z,6.47
2018-06-16T11:48:45.422Z,6.57
2018-06-16T11:51:13.895Z,7.43
2018-06-16T11:53:42.277Z,6.47
2018-06-16T11:56:10.955Z,7.83
2018-06-16T11:58:39.254Z,6.87
2018-06-16T12:01:07.578Z,7.07
2018-06-16T12:03:36.147Z,8.00
2018-06-16T12:06:04.767Z,7.03
2018-06-16T12:08:33.429Z,7.83
2018-06-16T12:11:01.742Z,6.90
2018-06-16T12:13:30.294Z,6.17
2018-06-16T12:15:58.637Z,7.90
2018-06-16T12:18:26.918Z,7.80
2018-06-16T12:20:55.273Z,6.77
2018-06-16T12:23:23.519Z,6.20
2018-06-16T12:25:51.797Z,6.97
2018-06-16T12:28:20.059Z,6.50
2018-06-16T12:30:48.331Z,7.33
2018-06-16T12:33:22.974Z,7.10
2018-06-16T12:35:51.552Z,7.03
2018-06-16T12:38:20.035Z,6.50
2018-06-16T12:40:48.431Z,6.20
2018-06-16T12:43:16.693Z,5.03
2018-06-16T12:45:44.971Z,5.70
2018-06-16T12:48:13.245Z,5.03
2018-06-16T12:50:41.511Z,4.80
2018-06-16T12:53:09.791Z,5.73
2018-06-16T12:55:38.142Z,4.87
2018-06-16T12:58:06.771Z,6.10
2018-06-16T13:00:35.473Z,5.00
2018-06-16T13:03:03.764Z,6.53
2018-06-16T13:05:32.070Z,5.13
2018-06-16T13:08:00.476Z,5.27
2018-06-16T13:10:29.800Z,5.00
2018-06-16T13:12:58.163Z,5.07
2018-06-16T13:15:26.743Z,5.13
2018-06-16T13:17:55.515Z,5.90
2018-06-16T13:20:24.539Z,6.13
2018-06-16T13:22:53.393Z,6.33
2018-06-16T13:25:22.226Z,7.50
2018-06-16T13:27:50.636Z,6.20
2018-06-16T13:30:19.421Z,8.67
2018-06-16T13:32:47.729Z,5.63
2018-06-16T13:35:16.030Z,8.73
2018-06-16T13:37:44.339Z,6.73
2018-06-16T13:40:13.630Z,10.10
2018-06-16T13:42:42.650Z,5.97
2018-06-16T13:45:12.038Z,6.07
2018-06-16T13:47:40.313Z,4.77
2018-06-16T13:50:08.718Z,6.97
2018-06-16T13:52:37.006Z,5.03
2018-06-16T13:55:05.558Z,4.73
2018-06-16T13:57:33.846Z,5.87
2018-06-16T14:00:02.118Z,4.50
2018-06-16T14:02:30.469Z,5.13
2018-06-16T14:04:58.709Z,5.07
2018-06-16T14:07:26.983Z,5.23
2018-06-16T14:09:55.318Z,5.77
2018-06-16T14:12:23.610Z,6.80
2018-06-16T14:14:52.110Z,5.57
2018-06-16T14:17:21.571Z,7.43
2018-06-16T14:19:49.875Z,5.67
2018-06-16T14:22:18.626Z,4.30
2018-06-16T14:24:46.658Z,5.27
2018-06-16T14:27:14.954Z,4.27
2018-06-16T14:29:43.238Z,6.87
2018-06-16T14:32:11.721Z,4.13
2018-06-16T14:34:40.132Z,5.10
2018-06-16T14:37:08.745Z,4.83
2018-06-16T14:39:37.178Z,5.47
2018-06-16T14:42:05.707Z,4.60
2018-06-16T14:44:33.972Z,7.23
2018-06-16T14:47:02.294Z,7.10
2018-06-16T14:49:31.206Z,6.17
2018-06-16T14:51:59.924Z,6.17
2018-06-16T14:54:28.730Z,5.13
2018-06-16T14:56:57.172Z,5.17
2018-06-16T14:59:26.437Z,5.27
2018-06-16T15:01:54.709Z,4.57
2018-06-16T15:04:23.650Z,4.87
2018-06-16T15:06:51.946Z,5.40
2018-06-16T15:09:20.902Z,5.13
2018-06-16T15:11:49.191Z,5.47
2018-06-16T15:14:17.599Z,7.10
2018-06-16T15:16:45.994Z,5.93
2018-06-16T15:19:14.359Z,6.47
2018-06-16T15:21:42.667Z,5.50
2018-06-16T15:24:10.968Z,5.80
2018-06-16T15:26:39.311Z,5.30
2018-06-16T15:29:07.685Z,5.97
2018-06-16T15:31:36.061Z,6.17
2018-06-16T15:34:05.167Z,6.20
2018-06-16T15:36:33.629Z,6.23
2018-06-16T15:39:01.996Z,7.47
2018-06-16T15:41:32.756Z,6.17
2018-06-16T15:44:01.142Z,6.83
2018-06-16T15:46:29.602Z,7.13
2018-06-16T15:48:57.785Z,5.47
2018-06-16T15:51:26.194Z,6.00
2018-06-16T15:53:54.554Z,6.27
2018-06-16T15:56:22.960Z,6.60
2018-06-16T15:58:52.158Z,5.70
2018-06-16T16:01:20.614Z,6.40
2018-06-16T16:03:48.924Z,5.00
2018-06-16T16:06:17.230Z,5.10
2018-06-16T16:08:45.514Z,5.70
2018-06-16T16:11:13.786Z,5.20
2018-06-16T16:13:42.066Z,7.00
2018-06-16T16:16:10.376Z,5.87
2018-06-16T16:18:38.849Z,5.67
2018-06-16T16:21:07.114Z,6.77
2018-06-16T16:23:35.154Z,9.23
2018-06-16T16:26:03.514Z,8.20
2018-06-16T16:28:31.783Z,5.63
2018-06-16T16:31:00.146Z,5.40
2018-06-16T16:33:28.553Z,5.53
2018-06-16T16:35:56.951Z,6.93
2018-06-16T16:38:26.212Z,5.77
2018-06-16T16:40:54.501Z,10.40
2018-06-16T16:43:22.870Z,7.07
2018-06-16T16:45:51.183Z,5.93
2018-06-16T16:48:19.459Z,6.17
2018-06-16T16:50:48.657Z,7.73
2018-06-16T16:53:17.067Z,5.60
2018-06-16T16:55:45.437Z,6.33
2018-06-16T16:58:13.867Z,6.20
2018-06-16T17:00:42.837Z,9.07
2018-06-16T17:03:11.332Z,10.13
2018-06-16T17:05:39.634Z,8.43
2018-06-16T17:08:07.934Z,7.20
2018-06-16T17:10:36.254Z,6.17
2018-06-16T17:13:04.581Z,6.00
2018-06-16T17:15:32.852Z,6.37
2018-06-16T17:18:01.627Z,6.00
2018-06-16T17:20:29.886Z,7.57
2018-06-16T17:22:58.496Z,5.77
2018-06-16T17:25:26.787Z,5.70
2018-06-16T17:27:55.145Z,7.40
2018-06-16T17:30:23.507Z,9.57
2018-06-16T17:32:51.782Z,6.53
2018-06-16T17:35:20.054Z,5.30
2018-06-16T17:37:48.975Z,6.23
2018-06-16T17:40:17.262Z,5.60
2018-06-16T17:42:45.565Z,5.90
2018-06-16T17:45:13.984Z,6.03
2018-06-16T17:47:42.390Z,6.23
2018-06-16T17:50:10.666Z,8.50
2018-06-16T17:52:39.362Z,6.77
2018-06-16T17:55:07.728Z,6.67
2018-06-16T17:57:36.024Z,5.90
2018-06-16T18:00:05.035Z,7.93
2018-06-16T18:02:33.338Z,6.00
2018-06-16T18:05:01.668Z,5.50
2018-06-16T18:07:29.956Z,5.80
2018-06-16T18:09:58.230Z,7.20
2018-06-16T18:12:26.518Z,5.70
2018-06-16T18:14:54.774Z,5.77
2018-06-16T18:17:23.822Z,5.53
2018-06-16T18:19:52.126Z,6.93
2018-06-16T18:22:20.553Z,6.10
2018-06-16T18:24:48.844Z,5.87
2018-06-16T18:27:17.184Z,5.73
2018-06-16T18:29:48.633Z,9.57
2018-06-16T18:32:17.199Z,8.77
2018-06-16T18:34:45.733Z,6.90
2018-06-16T18:37:14.123Z,5.80
2018-06-16T18:39:42.552Z,7.37
2018-06-16T18:42:11.562Z,6.20
2018-06-16T18:44:39.914Z,5.47
2018-06-16T18:47:08.162Z,5.80
2018-06-16T18:49:36.491Z,7.33
2018-06-16T18:52:04.738Z,6.47
2018-06-16T18:54:32.987Z,8.57
2018-06-16T18:57:01.274Z,6.30
2018-06-16T18:59:29.560Z,9.27
2018-06-16T19:01:57.817Z,9.23
2018-06-16T19:04:26.837Z,6.50
2018-06-16T19:06:55.120Z,6.93
2018-06-16T19:09:23.130Z,9.33
2018-06-16T19:11:51.461Z,7.80
2018-06-16T19:14:19.753Z,10.63
2018-06-16T19:16:48.538Z,8.40
2018-06-16T19:19:16.947Z,6.37
2018-06-16T19:21:45.469Z,6.60
2018-06-16T19:24:13.558Z,6.60
2018-06-16T19:26:42.278Z,9.07
2018-06-16T19:29:11.007Z,6.93
2018-06-16T19:31:39.332Z,6.63
2018-06-16T19:34:08.239Z,8.23
2018-06-16T19:36:36.547Z,9.83
2018-06-16T19:39:07.403Z,7.73
2018-06-16T19:41:35.832Z,8.40
2018-06-16T19:44:04.487Z,10.60
2018-06-16T19:46:32.750Z,7.20
2018-06-16T19:49:01.272Z,10.33
2018-06-16T19:51:29.539Z,8.53
2018-06-16T19:53:57.854Z,9.27
2018-06-16T19:56:26.123Z,8.30
2018-06-16T19:58:54.501Z,9.33
2018-06-16T20:01:22.886Z,9.70
2018-06-16T20:03:51.139Z,9.17
2018-06-16T20:06:19.454Z,11.60
2018-06-16T20:08:48.032Z,10.57
2018-06-16T20:11:16.893Z,8.90
2018-06-16T20:13:45.236Z,10.47
2018-06-16T20:16:13.638Z,10.40
2018-06-16T20:18:42.027Z,10.67
2018-06-16T20:21:10.223Z,12.20
2018-06-16T20:23:38.467Z,9.20
2018-06-16T20:26:06.742Z,9.83
2018-06-16T20:28:34.980Z,9.07
2018-06-16T20:31:03.346Z,9.10
2018-06-16T20:33:32.590Z,9.10
2018-06-16T20:36:00.856Z,8.30
2018-06-16T20:38:29.154Z,8.73
2018-06-16T20:40:57.419Z,9.30
2018-06-16T20:43:25.710Z,8.83
2018-06-16T20:45:53.828Z,10.33
2018-06-16T20:48:22.182Z,8.03
2018-06-16T20:50:50.916Z,9.83
2018-06-16T20:53:19.214Z,7.90
2018-06-16T20:55:47.489Z,8.00
2018-06-16T20:58:15.734Z,9.40
2018-06-16T21:00:45.272Z,8.10
2018-06-16T21:03:13.773Z,9.50
2018-06-16T21:05:42.038Z,8.57
2018-06-16T21:08:10.806Z,9.70
2018-06-16T21:10:39.551Z,7.63
2018-06-16T21:13:08.070Z,7.70
2018-06-16T21:15:36.321Z,9.03
2018-06-16T21:18:04.745Z,7.43
2018-06-16T21:20:33.263Z,7.97
2018-06-16T21:23:01.566Z,8.43
2018-06-16T21:25:30.138Z,8.60
2018-06-16T21:27:58.698Z,8.00
2018-06-16T21:30:26.989Z,7.83
2018-06-16T21:32:55.518Z,6.70
2018-06-16T21:35:24.087Z,6.30
2018-06-16T21:37:53.022Z,6.87
2018-06-16T21:40:21.652Z,6.23
2018-06-16T21:42:50.172Z,8.00
2018-06-16T21:45:18.790Z,6.53
2018-06-16T21:47:46.933Z,7.97
2018-06-16T21:50:15.183Z,6.23
2018-06-16T21:52:43.443Z,4.63
2018-06-16T21:55:11.723Z,6.30
2018-06-16T21:57:40.011Z,6.00
2018-06-16T22:00:11.125Z,4.03
2018-06-16T22:02:39.898Z,4.03
2018-06-16T22:05:08.683Z,4.37
2018-06-16T22:07:37.021Z,4.17
2018-06-16T22:10:06.022Z,4.60
2018-06-16T22:12:34.376Z,4.03
2018-06-16T22:15:03.126Z,4.47
2018-06-16T22:17:31.419Z,4.33
2018-06-16T22:19:59.695Z,4.67
2018-06-16T22:22:27.983Z,4.30
2018-06-16T22:24:56.815Z,4.23
2018-06-16T22:27:25.073Z,5.40
2018-06-16T22:29:53.342Z,4.40
2018-06-16T22:32:21.587Z,5.27
2018-06-16T22:34:49.879Z,5.13
2018-06-16T22:37:17.914Z,3.90
2018-06-16T22:39:46.980Z,5.17
2018-06-16T22:42:15.317Z,4.13
2018-06-16T22:44:43.634Z,6.43
2018-06-16T22:47:11.912Z,5.87
2018-06-16T22:49:40.169Z,6.20
2018-06-16T22:52:08.807Z,4.83
2018-06-16T22:54:37.414Z,4.87
2018-06-16T22:57:05.679Z,5.60
2018-06-16T22:59:33.942Z,5.60
2018-06-16T23:02:02.250Z,7.53
2018-06-16T23:04:30.628Z,6.07
2018-06-16T23:06:58.878Z,5.17
2018-06-16T23:09:27.163Z,7.20
2018-06-16T23:11:55.427Z,7.83
2018-06-16T23:14:23.704Z,6.63
2018-06-16T23:16:51.956Z,5.03
2018-06-16T23:19:20.207Z,6.27
2018-06-16T23:21:48.937Z,6.97
2018-06-16T23:24:17.185Z,7.50
2018-06-16T23:26:45.464Z,10.77
2018-06-16T23:29:13.738Z,10.60
2018-06-16T23:31:42.006Z,6.60
2018-06-16T23:34:10.831Z,8.37
2018-06-16T23:36:39.113Z,6.47
2018-06-16T23:39:10.035Z,7.47
2018-06-16T23:41:38.310Z,9.77
2018-06-16T23:44:06.578Z,8.70
2018-06-16T23:46:34.854Z,8.10
2018-06-16T23:49:02.875Z,9.73
2018-06-16T23:51:31.659Z,7.27
2018-06-16T23:53:59.919Z,11.97
2018-06-16T23:56:28.190Z,7.53
2018-06-16T23:58:56.674Z,9.93
